Time;durP1;ratioP1;P1;durP2;ratioP2;P2;SDS_P1;SDS_P2;PMS_P1;PMS_P2;Temp;Humidity;BMP_temperature;BMP_pressure;BME280_temperature;BME280_humidity;BME280_pressure;Samples;Min_cycle;Max_cycle;Signal;HPM_P1;HPM_P2
2022/12/28 00:02:23;;;;;;;23.75;10.35;;;5.30;99.90;;;;;;5007712;28;20041;-69
2022/12/28 00:04:48;;;;;;;19.40;9.55;;;5.40;99.90;;;;;;5007003;28;20113;-69
2022/12/28 00:07:15;;;;;;;15.95;10.02;;;5.30;99.90;;;;;;4999454;28;20404;-69
2022/12/28 00:09:41;;;;;;;20.15;9.65;;;5.30;99.90;;;;;;5005103;28;20049;-69
2022/12/28 00:12:06;;;;;;;18.67;9.82;;;5.30;99.90;;;;;;4988197;28;20053;-69
2022/12/28 00:14:33;;;;;;;13.88;9.25;;;5.30;99.90;;;;;;4989036;28;20139;-69
2022/12/28 00:16:59;;;;;;;14.65;10.23;;;5.30;99.90;;;;;;5007178;28;20137;-69
2022/12/28 00:19:25;;;;;;;31.67;11.80;;;5.30;99.90;;;;;;5007515;28;20125;-70
2022/12/28 00:21:52;;;;;;;24.02;10.77;;;5.30;99.90;;;;;;5001604;28;20049;-69
2022/12/28 00:24:20;;;;;;;20.95;9.90;;;5.30;99.90;;;;;;5007361;28;20057;-69
2022/12/28 00:26:46;;;;;;;14.95;9.63;;;5.30;99.90;;;;;;5006610;28;20052;-69
2022/12/28 00:29:12;;;;;;;14.98;9.98;;;5.30;99.90;;;;;;5007574;28;20049;-69
2022/12/28 00:31:37;;;;;;;15.75;8.93;;;5.30;99.90;;;;;;4999737;28;20056;-69
2022/12/28 00:34:04;;;;;;;25.30;11.85;;;5.30;99.90;;;;;;5005209;28;20046;-69
2022/12/28 00:36:31;;;;;;;16.83;10.10;;;5.30;99.90;;;;;;5007039;28;20530;-69
2022/12/28 00:38:58;;;;;;;26.08;11.07;;;5.30;99.90;;;;;;5005611;28;20353;-69
2022/12/28 00:41:24;;;;;;;16.08;9.75;;;5.30;99.90;;;;;;5006880;28;20050;-69
2022/12/28 00:43:49;;;;;;;17.80;11.63;;;5.30;99.90;;;;;;5006955;28;20045;-69
2022/12/28 00:46:16;;;;;;;19.45;9.88;;;5.30;99.90;;;;;;5007074;28;20052;-69
2022/12/28 00:48:42;;;;;;;23.85;11.30;;;5.30;99.90;;;;;;5007138;28;20058;-69
2022/12/28 00:51:13;;;;;;;19.42;11.00;;;5.30;99.90;;;;;;5006986;28;20108;-69
2022/12/28 00:53:39;;;;;;;15.93;11.73;;;5.30;99.90;;;;;;5006863;28;20050;-69
2022/12/28 00:56:12;;;;;;;19.67;11.73;;;5.30;99.90;;;;;;4988473;28;20046;-69
2022/12/28 00:58:38;;;;;;;17.13;11.68;;;5.30;99.90;;;;;;5005698;28;20059;-70
2022/12/28 01:01:09;;;;;;;16.35;11.07;;;5.30;99.90;;;;;;5007205;28;20701;-69
2022/12/28 01:03:35;;;;;;;15.20;12.40;;;5.30;99.90;;;;;;5007018;28;20506;-69
2022/12/28 01:06:08;;;;;;;17.40;11.73;;;5.30;99.90;;;;;;4989599;28;20053;-69
2022/12/28 01:08:35;;;;;;;18.35;10.55;;;5.30;99.90;;;;;;5007104;28;20411;-69
2022/12/28 01:11:09;;;;;;;17.67;10.00;;;5.30;99.90;;;;;;5005514;28;20065;-70
2022/12/28 01:13:36;;;;;;;17.40;11.85;;;5.30;99.90;;;;;;5007557;28;20119;-69
2022/12/28 01:16:14;;;;;;;17.83;11.32;;;5.30;99.90;;;;;;5006572;28;20049;-69
2022/12/28 01:18:40;;;;;;;;;;;5.30;99.90;;;;;;5011579;28;20483;-70
2022/12/28 01:21:17;;;;;;;21.10;12.27;;;5.30;99.90;;;;;;5008925;28;19940;-70
2022/12/28 01:23:44;;;;;;;13.48;10.73;;;5.30;99.90;;;;;;4993011;28;20768;-70
2022/12/28 01:26:10;;;;;;;17.35;11.77;;;5.30;99.90;;;;;;5010256;28;20104;-70
2022/12/28 01:28:36;;;;;;;20.00;11.38;;;5.30;99.90;;;;;;4993302;28;20046;-70
2022/12/28 01:31:08;;;;;;;27.05;11.57;;;5.30;99.90;;;;;;4993556;28;20502;-71
2022/12/28 01:33:35;;;;;;;23.48;11.40;;;5.30;99.90;;;;;;5010059;28;20120;-70
2022/12/28 01:36:13;;;;;;;21.50;11.25;;;5.30;99.90;;;;;;4981183;28;20082;-70
2022/12/28 01:38:40;;;;;;;20.42;11.95;;;5.40;99.90;;;;;;4980774;28;20042;-70
2022/12/28 01:41:14;;;;;;;22.58;12.50;;;5.30;99.90;;;;;;4990290;28;20093;-70
2022/12/28 01:43:44;;;;;;;19.50;11.73;;;5.30;99.90;;;;;;4990329;28;20153;-70
2022/12/28 01:46:23;;;;;;;20.75;11.98;;;5.40;99.90;;;;;;4990718;28;20158;-70
2022/12/28 01:49:09;;;;;;;;;;;5.40;99.90;;;;;;4990495;28;20527;-70
2022/12/28 01:51:46;;;;;;;26.42;11.45;;;5.40;99.90;;;;;;4976416;28;19926;-70
2022/12/28 01:54:13;;;;;;;16.65;12.75;;;5.40;99.90;;;;;;4988532;28;20061;-70
2022/12/28 01:56:41;;;;;;;18.35;11.38;;;5.40;99.90;;;;;;4969693;28;20051;-69
2022/12/28 01:59:08;;;;;;;19.20;12.95;;;5.40;99.90;;;;;;4992794;28;20499;-70
2022/12/28 02:01:33;;;;;;;16.95;11.40;;;5.40;99.90;;;;;;4989708;28;20538;-70
2022/12/28 02:03:59;;;;;;;20.02;11.85;;;5.40;99.90;;;;;;4990995;28;20129;-70
2022/12/28 02:06:25;;;;;;;25.15;11.88;;;5.50;99.90;;;;;;4989706;28;20124;-70
2022/12/28 02:09:10;;;;;;;22.08;12.18;;;5.50;99.90;;;;;;4990224;28;20034;-70
2022/12/28 02:11:36;;;;;;;21.55;12.65;;;5.50;99.90;;;;;;4988559;28;20046;-70
2022/12/28 02:14:05;;;;;;;22.15;11.95;;;5.50;99.90;;;;;;4989687;28;20431;-69
2022/12/28 02:16:30;;;;;;;15.80;10.45;;;5.50;99.90;;;;;;4990091;28;20038;-69
2022/12/28 02:18:56;;;;;;;24.60;12.98;;;5.50;99.90;;;;;;5002080;28;20109;-69
2022/12/28 02:21:36;;;;;;;21.77;11.60;;;5.50;99.90;;;;;;5003080;28;20404;-70
2022/12/28 02:24:04;;;;;;;19.17;10.65;;;5.50;99.90;;;;;;4988732;28;20511;-70
2022/12/28 02:26:49;;;;;;;;;;;5.50;99.90;;;;;;4990107;28;20133;-69
2022/12/28 02:29:33;;;;;;;16.33;12.02;;;5.50;99.90;;;;;;4990008;28;19926;-70
2022/12/28 02:32:05;;;;;;;21.45;12.30;;;5.60;99.90;;;;;;4988486;28;20137;-70
2022/12/28 02:35:00;;;;;;;24.67;13.18;;;5.60;99.90;;;;;;4989740;28;20046;-70
2022/12/28 02:37:56;;;;;;;27.90;12.40;;;5.60;99.90;;;;;;4981021;28;20129;-70
2022/12/28 02:40:34;;;;;;;18.95;13.00;;;5.60;99.90;;;;;;4987784;28;20050;-70
2022/12/28 02:43:02;;;;;;;17.95;12.30;;;5.60;99.90;;;;;;4990106;28;20049;-70
2022/12/28 02:51:40;;;;;;;21.00;13.55;;;5.60;99.90;;;;;;4983237;28;20051;-70
2022/12/28 02:57:45;;;;;;;29.13;12.85;;;5.60;99.90;;;;;;4972224;28;20051;-70
2022/12/28 03:00:22;;;;;;;15.60;12.18;;;5.60;99.90;;;;;;4986213;28;20054;-70
2022/12/28 03:03:10;;;;;;;18.33;12.55;;;5.60;99.90;;;;;;4988726;28;20053;-70
2022/12/28 03:09:11;;;;;;;18.55;12.18;;;5.70;99.90;;;;;;4979561;28;20050;-70
2022/12/28 03:11:45;;;;;;;19.45;13.68;;;5.70;99.90;;;;;;4987466;28;20047;-70
2022/12/28 03:14:17;;;;;;;20.17;13.38;;;5.70;99.90;;;;;;4983995;28;20046;-70
2022/12/28 03:31:06;;;;;;;27.80;15.88;;;5.80;99.90;;;;;;4979308;28;20054;-70
2022/12/28 03:33:50;;;;;;;20.67;13.00;;;5.80;99.90;;;;;;4980910;28;20185;-69
2022/12/28 03:36:33;;;;;;;23.33;14.73;;;5.80;99.90;;;;;;4999375;28;20526;-70
2022/12/28 03:39:41;;;;;;;22.95;14.18;;;5.90;99.90;;;;;;4975093;28;20058;-70
2022/12/28 03:45:11;;;;;;;20.38;13.95;;;5.90;99.90;;;;;;5005563;28;20053;-71
2022/12/28 03:47:39;;;;;;;21.95;15.00;;;5.90;99.90;;;;;;5007810;28;20053;-70
2022/12/28 03:50:06;;;;;;;21.60;14.38;;;5.90;99.90;;;;;;5003166;28;20140;-70
2022/12/28 03:52:32;;;;;;;30.33;16.05;;;6.00;99.90;;;;;;5006551;28;20037;-70
2022/12/28 03:54:58;;;;;;;17.08;13.05;;;6.00;99.90;;;;;;5007201;28;20053;-70
2022/12/28 03:57:23;;;;;;;20.88;14.95;;;6.00;99.90;;;;;;4987926;28;20042;-70
2022/12/28 03:59:49;;;;;;;20.95;13.88;;;6.00;99.90;;;;;;5007623;28;20045;-70
2022/12/28 04:02:16;;;;;;;26.25;14.10;;;6.00;99.90;;;;;;4997229;28;20126;-69
2022/12/28 04:04:41;;;;;;;29.52;14.15;;;6.10;99.90;;;;;;5001557;28;20050;-70
2022/12/28 04:07:07;;;;;;;19.83;14.05;;;6.10;99.90;;;;;;4999283;28;20046;-70
2022/12/28 04:09:33;;;;;;;19.65;13.60;;;6.10;99.90;;;;;;5005730;28;20045;-70
2022/12/28 04:11:58;;;;;;;17.48;12.90;;;6.10;99.90;;;;;;5007768;28;20506;-70
2022/12/28 04:14:24;;;;;;;20.80;14.40;;;6.10;99.90;;;;;;4998203;28;20042;-69
2022/12/28 04:16:50;;;;;;;18.52;11.93;;;6.10;99.90;;;;;;5000247;28;20037;-70
2022/12/28 04:19:15;;;;;;;21.95;13.23;;;6.20;99.90;;;;;;4973029;28;20193;-69
2022/12/28 04:21:41;;;;;;;18.65;12.95;;;6.20;99.90;;;;;;4968151;28;20052;-69
2022/12/28 04:24:06;;;;;;;13.25;11.30;;;6.20;99.90;;;;;;5007427;28;20041;-70
2022/12/28 04:26:33;;;;;;;18.23;11.30;;;6.20;99.90;;;;;;5004137;28;20042;-70
2022/12/28 04:29:00;;;;;;;16.58;12.68;;;6.20;99.90;;;;;;5007656;28;20418;-69
2022/12/28 04:31:27;;;;;;;13.48;10.23;;;6.20;99.90;;;;;;4995999;28;20406;-69
2022/12/28 04:33:56;;;;;;;13.23;10.15;;;6.30;99.90;;;;;;5007477;28;20068;-70
2022/12/28 04:36:22;;;;;;;17.38;10.60;;;6.30;99.90;;;;;;4988480;28;20104;-69
2022/12/28 04:38:47;;;;;;;15.32;10.88;;;6.30;99.90;;;;;;4995493;28;20046;-69
2022/12/28 04:41:13;;;;;;;15.23;10.13;;;6.30;99.90;;;;;;5004468;28;20495;-69
2022/12/28 04:43:39;;;;;;;12.25;10.48;;;6.30;99.90;;;;;;5006967;28;20069;-69
2022/12/28 04:46:08;;;;;;;14.10;9.68;;;6.40;99.90;;;;;;5007251;28;20046;-70
2022/12/28 04:48:34;;;;;;;13.55;10.13;;;6.40;99.90;;;;;;4981642;28;20054;-70
2022/12/28 04:51:06;;;;;;;14.02;9.65;;;6.40;99.90;;;;;;5009626;28;20038;-69
2022/12/28 04:53:36;;;;;;;16.17;10.38;;;6.40;99.90;;;;;;5010672;28;20049;-70
2022/12/28 04:56:04;;;;;;;9.70;8.73;;;6.40;99.90;;;;;;5008821;28;20042;-70
2022/12/28 04:58:29;;;;;;;13.10;10.45;;;6.40;99.90;;;;;;5009047;28;20050;-71
2022/12/28 05:01:08;;;;;;;12.18;9.60;;;6.50;99.90;;;;;;5009564;28;20050;-70
2022/12/28 05:03:34;;;;;;;;;;;6.50;99.90;;;;;;5003711;28;20121;-70
2022/12/28 05:06:06;;;;;;;14.98;9.25;;;6.50;99.90;;;;;;5006518;28;19921;-71
2022/12/28 05:08:34;;;;;;;11.75;9.38;;;6.50;99.90;;;;;;5005625;28;20045;-71
2022/12/28 05:11:05;;;;;;;15.82;9.40;;;6.50;99.90;;;;;;5006380;28;20104;-70
2022/12/28 05:13:31;;;;;;;12.18;9.25;;;6.50;99.90;;;;;;5001735;28;20045;-70
2022/12/28 05:16:10;;;;;;;13.25;9.02;;;6.50;99.90;;;;;;5006798;28;20100;-70
2022/12/28 05:18:37;;;;;;;11.10;9.13;;;6.60;99.90;;;;;;4992922;28;20061;-70
2022/12/28 05:21:07;;;;;;;13.95;10.05;;;6.50;99.90;;;;;;5008965;28;20115;-70
2022/12/28 05:23:35;;;;;;;10.05;8.88;;;6.60;99.90;;;;;;5008564;28;20046;-70
2022/12/28 05:26:01;;;;;;;10.73;8.48;;;6.60;99.90;;;;;;5003991;28;20057;-70
2022/12/28 05:28:27;;;;;;;13.55;9.55;;;6.60;99.90;;;;;;5005772;28;20395;-70
2022/12/28 05:31:01;;;;;;;10.77;9.48;;;6.60;99.90;;;;;;4989388;28;20104;-70
2022/12/28 05:33:31;;;;;;;12.40;8.77;;;6.70;99.90;;;;;;5008622;28;20046;-70
2022/12/28 05:36:17;;;;;;;13.48;10.68;;;6.70;99.90;;;;;;5009890;28;20053;-70
2022/12/28 05:38:43;;;;;;;12.82;10.65;;;6.70;99.90;;;;;;4992712;28;20365;-70
2022/12/28 05:41:19;;;;;;;12.45;10.43;;;6.70;99.90;;;;;;5009369;28;20059;-70
2022/12/28 05:43:46;;;;;;;10.95;9.75;;;6.80;99.90;;;;;;5009235;28;20470;-70
2022/12/28 05:46:23;;;;;;;11.95;10.48;;;6.70;99.90;;;;;;5004613;28;20188;-70
2022/12/28 05:48:49;;;;;;;12.07;10.37;;;6.80;99.90;;;;;;5009687;28;20053;-70
2022/12/28 05:51:18;;;;;;;12.95;10.48;;;6.80;99.90;;;;;;5009028;28;20054;-70
2022/12/28 05:53:43;;;;;;;15.00;10.82;;;6.80;99.90;;;;;;5010513;28;20460;-71
2022/12/28 05:56:12;;;;;;;13.40;10.68;;;6.80;99.90;;;;;;5010706;28;20049;-71
2022/12/28 05:58:38;;;;;;;12.00;10.20;;;6.90;99.90;;;;;;5012456;28;20411;-70
2022/12/28 06:01:10;;;;;;;14.23;10.55;;;6.90;99.90;;;;;;5009215;28;20057;-71
2022/12/28 06:03:36;;;;;;;15.15;11.50;;;6.90;99.90;;;;;;4990267;28;20171;-71
2022/12/28 06:06:10;;;;;;;12.07;10.23;;;6.90;99.90;;;;;;4995929;28;20057;-70
2022/12/28 06:08:37;;;;;;;13.98;10.43;;;6.90;99.90;;;;;;5001233;28;20049;-72
2022/12/28 06:11:09;;;;;;;11.45;10.20;;;6.90;99.90;;;;;;5005651;28;20081;-72
2022/12/28 06:13:35;;;;;;;14.18;10.50;;;7.00;99.90;;;;;;4987183;28;20075;-71
2022/12/28 06:16:08;;;;;;;16.15;11.30;;;7.00;99.90;;;;;;5005001;28;20049;-70
2022/12/28 06:18:34;;;;;;;18.00;13.63;;;7.00;99.90;;;;;;5003713;28;20043;-71
2022/12/28 06:21:05;;;;;;;16.63;12.45;;;7.00;99.90;;;;;;4997378;28;20129;-70
2022/12/28 06:23:31;;;;;;;18.30;13.88;;;7.00;99.90;;;;;;4992161;28;20053;-70
2022/12/28 06:25:58;;;;;;;18.98;13.82;;;7.10;99.90;;;;;;4997057;28;20042;-70
2022/12/28 06:28:24;;;;;;;16.58;13.52;;;7.10;99.90;;;;;;5001775;28;20041;-70
2022/12/28 06:30:50;;;;;;;15.27;12.40;;;7.10;99.90;;;;;;5008832;28;20056;-70
2022/12/28 06:33:16;;;;;;;19.35;14.38;;;7.10;99.90;;;;;;4991717;28;20100;-70
2022/12/28 06:35:41;;;;;;;17.10;13.45;;;7.10;99.90;;;;;;5008883;28;20054;-70
2022/12/28 06:38:07;;;;;;;17.80;13.98;;;7.10;99.90;;;;;;5001925;28;20097;-70
2022/12/28 06:40:33;;;;;;;19.02;12.77;;;7.20;99.90;;;;;;5007966;28;20042;-70
2022/12/28 06:42:58;;;;;;;17.55;13.07;;;7.20;99.90;;;;;;5008684;28;20054;-70
2022/12/28 06:45:24;;;;;;;17.83;14.60;;;7.20;99.90;;;;;;5001270;28;20115;-70
2022/12/28 06:47:51;;;;;;;22.10;14.80;;;7.20;99.90;;;;;;5000337;28;20030;-71
2022/12/28 06:50:17;;;;;;;20.38;15.40;;;7.20;99.90;;;;;;5006026;28;20038;-71
2022/12/28 06:52:42;;;;;;;19.80;14.77;;;7.30;99.90;;;;;;5008335;28;20125;-70
2022/12/28 06:55:09;;;;;;;20.83;15.15;;;7.30;99.90;;;;;;5005470;28;20150;-70
2022/12/28 06:57:35;;;;;;;17.77;14.30;;;7.30;99.90;;;;;;5009195;28;20045;-70
2022/12/28 07:00:01;;;;;;;23.45;15.60;;;7.30;99.90;;;;;;5006666;28;20400;-71
2022/12/28 07:02:26;;;;;;;18.63;13.80;;;7.30;99.90;;;;;;4991510;28;20073;-70
2022/12/28 07:04:52;;;;;;;18.27;14.18;;;7.40;99.90;;;;;;4990677;28;20483;-70
2022/12/28 07:07:18;;;;;;;17.88;14.18;;;7.40;99.90;;;;;;5008887;28;20042;-71
2022/12/28 07:09:43;;;;;;;20.95;14.43;;;7.40;99.90;;;;;;5007987;28;20038;-70
2022/12/28 07:12:09;;;;;;;20.70;14.88;;;7.40;99.90;;;;;;5005676;28;20173;-71
2022/12/28 07:14:34;;;;;;;17.70;14.15;;;7.40;99.90;;;;;;5002868;28;20054;-70
2022/12/28 07:17:01;;;;;;;19.80;15.90;;;7.50;99.90;;;;;;5003401;28;20054;-71
2022/12/28 07:19:27;;;;;;;21.33;14.43;;;7.50;99.90;;;;;;5005513;28;20052;-71
2022/12/28 07:21:52;;;;;;;19.33;15.02;;;7.50;99.90;;;;;;5004297;28;20045;-71
2022/12/28 07:24:18;;;;;;;22.00;16.60;;;7.50;99.90;;;;;;5007228;28;20038;-70
2022/12/28 07:26:44;;;;;;;19.13;14.98;;;7.60;99.90;;;;;;5006768;28;20042;-71
2022/12/28 07:29:09;;;;;;;25.90;14.27;;;7.60;99.90;;;;;;5006533;28;20747;-71
2022/12/28 07:31:37;;;;;;;18.73;14.90;;;7.60;99.90;;;;;;5005948;28;20100;-71
2022/12/28 07:34:03;;;;;;;22.15;15.43;;;7.60;99.90;;;;;;4988420;28;20086;-70
2022/12/28 07:36:31;;;;;;;19.13;15.25;;;7.60;99.90;;;;;;5003436;28;20092;-71
2022/12/28 07:38:57;;;;;;;25.63;17.48;;;7.70;99.90;;;;;;5008228;28;20081;-71
2022/12/28 07:41:29;;;;;;;19.27;15.40;;;7.70;99.90;;;;;;5007694;28;20406;-71
2022/12/28 07:43:55;;;;;;;23.25;16.75;;;7.80;99.90;;;;;;5004025;28;20054;-71
2022/12/28 07:46:24;;;;;;;27.13;17.40;;;7.70;99.90;;;;;;4988605;28;20073;-71
2022/12/28 07:48:50;;;;;;;31.00;18.15;;;7.70;99.90;;;;;;4988977;28;20131;-71
2022/12/28 07:51:18;;;;;;;26.48;17.20;;;7.80;99.90;;;;;;5004188;28;20133;-70
2022/12/28 07:53:47;;;;;;;25.45;17.83;;;7.80;99.90;;;;;;5003200;28;20045;-71
2022/12/28 07:56:16;;;;;;;37.50;18.98;;;7.80;99.90;;;;;;5000279;28;20042;-71
2022/12/28 07:58:50;;;;;;;28.00;19.83;;;7.90;99.90;;;;;;5001295;28;20046;-71
2022/12/28 08:01:18;;;;;;;27.85;18.67;;;7.80;99.90;;;;;;4997084;28;20104;-71
2022/12/28 08:03:44;;;;;;;25.30;18.58;;;7.90;99.90;;;;;;5006862;28;20092;-71
2022/12/28 08:06:22;;;;;;;24.35;17.95;;;7.90;99.90;;;;;;5007458;28;20038;-71
2022/12/28 08:08:49;;;;;;;20.80;17.63;;;7.90;99.90;;;;;;4998967;28;20112;-71
2022/12/28 08:11:20;;;;;;;27.73;19.48;;;7.90;99.90;;;;;;4988559;28;20042;-71
2022/12/28 08:13:47;;;;;;;25.33;18.83;;;8.00;99.90;;;;;;5001565;28;20085;-70
2022/12/28 08:16:15;;;;;;;30.63;20.35;;;7.90;99.90;;;;;;5005615;28;20050;-71
2022/12/28 08:18:41;;;;;;;32.42;20.15;;;8.00;99.90;;;;;;5007224;28;20041;-73
2022/12/28 08:21:10;;;;;;;31.10;21.10;;;8.00;99.90;;;;;;5006285;28;20042;-71
2022/12/28 08:23:36;;;;;;;30.08;21.92;;;8.00;99.90;;;;;;5006566;28;20049;-71
2022/12/28 08:26:11;;;;;;;28.67;20.83;;;8.00;99.90;;;;;;5005993;28;20052;-71
2022/12/28 08:28:38;;;;;;;33.67;20.63;;;8.10;99.90;;;;;;4998874;28;20046;-71
2022/12/28 08:31:12;;;;;;;32.75;21.85;;;8.10;99.90;;;;;;5006207;28;20054;-71
2022/12/28 08:33:38;;;;;;;24.08;18.40;;;8.10;99.90;;;;;;5007098;28;20045;-71
2022/12/28 08:36:05;;;;;;;26.92;20.48;;;8.10;99.90;;;;;;5005589;28;20062;-71
2022/12/28 08:38:31;;;;;;;33.58;20.27;;;8.10;99.90;;;;;;5005854;28;20118;-71
2022/12/28 08:40:58;;;;;;;27.73;18.30;;;8.10;99.90;;;;;;5002927;28;20042;-71
2022/12/28 08:43:26;;;;;;;23.27;18.55;;;8.10;99.90;;;;;;4984725;28;20093;-71
2022/12/28 08:46:05;;;;;;;27.63;19.38;;;8.10;99.90;;;;;;5007127;28;20042;-72
2022/12/28 08:48:31;;;;;;;36.72;19.65;;;8.10;99.90;;;;;;4990358;28;20081;-71
2022/12/28 08:51:13;;;;;;;24.42;18.15;;;8.20;99.90;;;;;;4990123;28;20046;-72
2022/12/28 08:53:39;;;;;;;26.17;17.35;;;8.10;99.90;;;;;;4973538;28;20104;-71
2022/12/28 08:56:16;;;;;;;23.80;17.23;;;8.20;99.90;;;;;;4989582;28;20053;-71
2022/12/28 08:58:43;;;;;;;23.65;16.35;;;8.20;99.90;;;;;;5003896;28;20096;-71
2022/12/28 09:01:16;;;;;;;23.83;15.88;;;8.20;99.90;;;;;;5007584;28;20053;-70
2022/12/28 09:03:44;;;;;;;24.80;17.08;;;8.20;99.90;;;;;;5002570;28;20049;-70
2022/12/28 09:06:19;;;;;;;23.20;16.02;;;8.20;99.90;;;;;;5006292;28;20566;-71
2022/12/28 09:08:49;;;;;;;21.23;14.88;;;8.20;99.90;;;;;;5007504;28;20038;-71
2022/12/28 09:11:15;;;;;;;21.48;15.05;;;8.20;99.90;;;;;;5004091;28;20317;-70
2022/12/28 09:13:41;;;;;;;20.58;15.65;;;8.20;99.90;;;;;;4999843;28;20042;-71
2022/12/28 09:16:12;;;;;;;23.67;15.75;;;8.20;99.90;;;;;;4995708;28;20045;-71
2022/12/28 09:18:40;;;;;;;25.70;16.98;;;8.20;99.90;;;;;;5002162;28;20447;-73
2022/12/28 09:21:08;;;;;;;20.50;14.68;;;8.20;99.90;;;;;;5004604;28;20050;-72
2022/12/28 09:23:34;;;;;;;;;;;8.30;99.90;;;;;;5005622;28;20054;-71
2022/12/28 09:26:05;;;;;;;21.38;15.48;;;8.20;99.90;;;;;;5005268;28;20212;-72
2022/12/28 09:28:31;;;;;;;26.52;17.35;;;8.20;99.90;;;;;;4978270;28;20050;-71
2022/12/28 09:30:56;;;;;;;26.30;16.38;;;8.30;99.90;;;;;;4997776;28;20052;-71
2022/12/28 09:36:06;;;;;;;24.02;15.88;;;8.20;99.90;;;;;;4988447;28;20085;-72
2022/12/28 09:38:32;;;;;;;26.02;16.10;;;8.30;99.90;;;;;;5009659;28;20077;-71
2022/12/28 09:40:58;;;;;;;23.17;16.25;;;8.30;99.90;;;;;;5010133;28;20030;-72
2022/12/28 09:43:25;;;;;;;25.50;16.85;;;8.30;99.90;;;;;;5010050;28;20465;-72
2022/12/28 09:45:53;;;;;;;24.15;15.38;;;8.30;99.90;;;;;;5009486;28;20069;-72
2022/12/28 09:48:21;;;;;;;20.52;15.07;;;8.40;99.90;;;;;;4975781;28;20547;-71
2022/12/28 09:50:48;;;;;;;;;;;8.30;99.90;;;;;;4993476;28;20114;-69
2022/12/28 09:53:33;;;;;;;19.83;14.38;;;8.40;99.90;;;;;;5009621;28;19980;-70
2022/12/28 09:56:02;;;;;;;20.23;14.13;;;8.40;99.90;;;;;;5010213;28;20050;-71
2022/12/28 09:58:34;;;;;;;20.27;14.70;;;8.40;99.90;;;;;;5004457;28;20050;-71
2022/12/28 10:01:02;;;;;;;29.42;15.50;;;8.40;99.90;;;;;;4992754;28;20482;-73
2022/12/28 10:03:30;;;;;;;18.13;13.55;;;8.50;99.90;;;;;;4992385;28;20084;-71
2022/12/28 10:05:57;;;;;;;18.55;14.20;;;8.40;99.90;;;;;;4992587;28;20100;-71
2022/12/28 10:08:26;;;;;;;18.40;14.07;;;8.50;99.90;;;;;;5009973;28;20042;-70
2022/12/28 10:10:54;;;;;;;22.88;16.08;;;8.50;99.90;;;;;;5009420;28;20052;-71
2022/12/28 10:13:23;;;;;;;25.88;16.63;;;8.50;99.90;;;;;;5010392;28;20119;-71
2022/12/28 10:15:50;;;;;;;22.50;16.33;;;8.50;99.90;;;;;;4992808;28;20132;-72
2022/12/28 10:18:24;;;;;;;21.27;15.95;;;8.50;99.90;;;;;;4988632;28;20046;-70
2022/12/28 10:20:50;;;;;;;23.40;16.95;;;8.50;99.90;;;;;;4975085;28;20062;-70
2022/12/28 10:23:20;;;;;;;28.58;14.68;;;8.50;99.90;;;;;;4991381;28;20048;-73
2022/12/28 10:25:47;;;;;;;24.73;16.42;;;8.60;99.90;;;;;;5009754;28;20576;-71
2022/12/28 10:28:13;;;;;;;19.38;15.63;;;8.70;99.90;;;;;;5009135;28;20435;-71
2022/12/28 10:31:11;;;;;;;20.88;15.27;;;8.70;99.90;;;;;;4977689;28;20045;-71
2022/12/28 10:33:48;;;;;;;17.65;14.38;;;8.80;99.90;;;;;;5004121;28;20120;-71
2022/12/28 10:36:17;;;;;;;19.05;14.07;;;8.80;99.90;;;;;;4987717;28;20054;-71
2022/12/28 10:38:49;;;;;;;17.92;14.18;;;8.80;99.90;;;;;;4986033;28;20074;-70
2022/12/28 10:41:17;;;;;;;14.85;12.82;;;8.90;99.90;;;;;;4984863;28;20118;-69
2022/12/28 10:43:47;;;;;;;14.95;11.70;;;8.90;99.90;;;;;;4973606;28;20153;-69
2022/12/28 10:46:21;;;;;;;15.32;12.43;;;8.90;99.90;;;;;;4980925;28;20050;-69
2022/12/28 10:48:59;;;;;;;17.70;11.25;;;8.90;99.90;;;;;;4986257;28;20042;-72
2022/12/28 10:51:27;;;;;;;14.97;11.67;;;8.90;99.90;;;;;;4968978;28;20081;-71
2022/12/28 10:53:55;;;;;;;14.07;11.15;;;8.90;99.90;;;;;;4986101;28;20061;-71
2022/12/28 10:56:28;;;;;;;15.82;12.45;;;8.90;99.90;;;;;;4988240;28;20057;-71
2022/12/28 10:59:11;;;;;;;13.35;10.63;;;8.90;99.90;;;;;;4981562;28;20138;-71
2022/12/28 11:01:38;;;;;;;15.00;9.90;;;8.90;99.90;;;;;;4990949;28;20058;-71
2022/12/28 11:04:14;;;;;;;14.18;10.80;;;8.90;99.90;;;;;;4986468;28;20487;-72
2022/12/28 11:07:01;;;;;;;12.07;8.43;;;9.00;99.90;;;;;;4978440;28;20057;-71
2022/12/28 11:09:34;;;;;;;11.32;9.10;;;9.00;99.90;;;;;;4984323;28;20050;-71
2022/12/28 11:12:25;;;;;;;11.30;7.53;;;9.00;99.90;;;;;;4987474;28;20561;-72
2022/12/28 11:14:51;;;;;;;9.45;7.50;;;9.00;99.90;;;;;;4988970;28;20073;-72
2022/12/28 11:17:23;;;;;;;8.55;6.68;;;9.00;99.90;;;;;;4993768;28;20046;-72
2022/12/28 11:20:00;;;;;;;10.13;7.60;;;9.00;99.90;;;;;;4986714;28;20069;-72
2022/12/28 11:22:28;;;;;;;11.10;7.38;;;9.00;99.90;;;;;;4982057;28;20066;-72
2022/12/28 11:24:58;;;;;;;8.63;6.68;;;9.00;99.90;;;;;;4988544;28;20046;-72
2022/12/28 11:27:24;;;;;;;10.52;7.60;;;9.00;99.90;;;;;;4986673;28;20096;-72
2022/12/28 11:29:52;;;;;;;9.15;6.97;;;9.00;99.90;;;;;;4983315;28;20058;-72
2022/12/28 11:32:42;;;;;;;7.20;6.32;;;9.10;99.90;;;;;;4983238;28;20046;-72
2022/12/28 11:35:18;;;;;;;10.40;6.97;;;9.00;99.90;;;;;;4984448;28;20400;-72
2022/12/28 11:37:51;;;;;;;7.82;6.55;;;9.10;99.90;;;;;;4999776;28;20057;-72
2022/12/28 11:40:42;;;;;;;8.60;6.55;;;9.00;99.90;;;;;;5007906;28;20052;-72
2022/12/28 11:43:27;;;;;;;7.13;5.88;;;9.10;99.90;;;;;;4998682;28;20056;-72
2022/12/28 11:45:57;;;;;;;8.55;6.53;;;9.10;99.90;;;;;;5001640;28;20575;-71
2022/12/28 11:48:42;;;;;;;8.57;6.88;;;9.00;99.90;;;;;;5003945;28;20085;-71
2022/12/28 11:51:23;;;;;;;7.72;6.30;;;9.10;99.90;;;;;;4989983;28;20095;-72
2022/12/28 11:53:53;;;;;;;9.27;6.68;;;9.10;99.90;;;;;;4988633;28;20045;-72
2022/12/28 11:56:20;;;;;;;8.70;6.97;;;9.10;99.90;;;;;;5008309;28;20045;-72
2022/12/28 11:59:02;;;;;;;8.35;6.32;;;9.10;99.90;;;;;;5008025;28;20673;-72
2022/12/28 12:01:32;;;;;;;9.05;7.15;;;9.00;99.90;;;;;;5007051;28;20539;-72
2022/12/28 12:03:58;;;;;;;7.72;6.93;;;9.10;99.90;;;;;;4990443;28;20612;-72
2022/12/28 12:06:46;;;;;;;11.57;6.57;;;9.00;99.90;;;;;;4999753;28;20045;-72
2022/12/28 12:09:24;;;;;;;8.55;7.65;;;9.10;99.90;;;;;;4989713;28;20046;-72
2022/12/28 12:12:16;;;;;;;10.55;7.63;;;9.10;99.90;;;;;;4990254;28;20808;-72
2022/12/28 12:14:47;;;;;;;10.60;7.85;;;9.00;99.90;;;;;;4957405;28;20089;-72
2022/12/28 12:17:15;;;;;;;8.32;7.05;;;9.10;99.90;;;;;;4996830;28;20053;-71
2022/12/28 12:19:48;;;;;;;9.23;6.60;;;9.10;99.90;;;;;;5004145;28;20056;-72
2022/12/28 12:22:20;;;;;;;8.27;6.43;;;9.10;99.90;;;;;;5002387;28;20054;-71
2022/12/28 12:24:56;;;;;;;8.77;6.78;;;9.10;99.90;;;;;;5006332;28;20050;-72
2022/12/28 12:27:41;;;;;;;7.25;6.00;;;9.10;99.90;;;;;;5000799;28;20081;-72
2022/12/28 12:30:16;;;;;;;7.65;4.75;;;9.10;99.90;;;;;;5006401;28;20502;-72
2022/12/28 12:32:47;;;;;;;7.93;6.57;;;9.10;99.90;;;;;;4990299;28;20046;-72
2022/12/28 12:35:15;;;;;;;6.35;5.35;;;9.10;99.90;;;;;;5005327;28;20058;-72
2022/12/28 12:37:46;;;;;;;6.90;5.47;;;9.10;99.90;;;;;;4989505;28;20084;-72
2022/12/28 12:40:49;;;;;;;6.15;5.55;;;9.10;99.90;;;;;;5005862;28;20101;-72
2022/12/28 12:43:29;;;;;;;5.65;5.13;;;9.10;99.90;;;;;;5002038;28;20112;-72
2022/12/28 12:46:25;;;;;;;7.47;6.10;;;9.00;99.90;;;;;;5002537;28;20529;-72
2022/12/28 12:49:04;;;;;;;7.55;6.32;;;9.00;99.90;;;;;;4981406;28;20123;-71
2022/12/28 12:51:39;;;;;;;8.30;6.50;;;9.00;99.90;;;;;;5001915;28;20060;-72
2022/12/28 12:54:26;;;;;;;6.70;6.00;;;9.00;99.90;;;;;;5000723;28;20128;-71
2022/12/28 12:56:52;;;;;;;12.23;6.07;;;9.00;99.90;;;;;;4985813;28;20085;-71
2022/12/28 12:59:55;;;;;;;9.88;8.27;;;9.00;99.90;;;;;;4997828;28;20129;-71
2022/12/28 13:02:24;;;;;;;19.33;11.82;;;9.00;99.90;;;;;;4984422;28;20507;-71
2022/12/28 13:04:50;;;;;;;10.75;8.77;;;9.00;99.90;;;;;;5003371;28;20194;-71
2022/12/28 13:07:20;;;;;;;5.95;5.35;;;9.00;99.90;;;;;;5006297;28;20470;-71
2022/12/28 13:09:49;;;;;;;6.80;5.70;;;9.00;99.90;;;;;;4984855;28;20890;-71
2022/12/28 13:12:16;;;;;;;;;;;9.00;99.90;;;;;;5001986;28;20049;-71
2022/12/28 13:14:53;;;;;;;8.70;5.32;;;9.00;99.90;;;;;;5007117;28;19944;-72
2022/12/28 13:17:20;;;;;;;10.38;5.30;;;9.00;99.90;;;;;;5006442;28;20072;-71
2022/12/28 13:19:47;;;;;;;5.20;4.60;;;9.00;99.90;;;;;;4992914;28;20057;-71
2022/12/28 13:22:30;;;;;;;7.28;5.07;;;9.00;99.90;;;;;;4993301;28;20510;-71
2022/12/28 13:24:57;;;;;;;6.22;5.57;;;9.00;99.90;;;;;;4991945;28;20046;-71
2022/12/28 13:27:30;;;;;;;5.40;4.55;;;9.00;99.90;;;;;;4976996;28;20049;-71
2022/12/28 13:29:56;;;;;;;4.57;4.10;;;9.00;99.90;;;;;;4993096;28;20042;-71
2022/12/28 13:32:30;;;;;;;8.02;4.93;;;9.00;99.90;;;;;;4992026;28;20772;-71
2022/12/28 13:34:56;;;;;;;5.20;4.70;;;9.00;99.90;;;;;;5003644;28;20046;-71